Time;durP1;ratioP1;P1;durP2;ratioP2;P2;SDS_P1;SDS_P2;PMS_P1;PMS_P2;Temp;Humidity;BMP_temperature;BMP_pressure;BME280_temperature;BME280_humidity;BME280_pressure;Samples;Min_cycle;Max_cycle;Signal;HPM_P1;HPM_P2
2023/06/19 00:00:22;;;;;;;;;;;;;;;30.29;79.07;98380.56;5023600;28;20012;-42
2023/06/19 00:02:48;;;;;;;;;;;;;;;30.24;81.01;98382.91;5021645;28;20024;-42
2023/06/19 00:05:13;;;;;;;;;;;;;;;29.42;82.90;98392.00;5022386;28;19964;-43
2023/06/19 00:07:39;;;;;;;;;;;;;;;29.28;82.33;98395.50;5021769;28;19940;-43
2023/06/19 00:10:04;;;;;;;;;;;;;;;29.57;84.02;98376.06;5022657;28;19921;-42
2023/06/19 00:12:30;;;;;;;;;;;;;;;29.74;83.34;98369.56;5021282;28;19964;-43
2023/06/19 00:14:55;;;;;;;;;;;;;;;28.42;86.46;98405.53;5022448;28;20580;-43
2023/06/19 00:17:20;;;;;;;;;;;;;;;28.76;88.64;98389.22;5023937;28;19925;-42
2023/06/19 00:19:46;;;;;;;;;;;;;;;29.80;85.25;98352.88;5004773;28;19917;-42
2023/06/19 00:22:12;;;;;;;;;;;;;;;29.96;82.71;98335.88;5021085;28;19925;-42
2023/06/19 00:24:37;;;;;;;;;;;;;;;30.13;81.83;98332.97;5022010;28;19931;-42
2023/06/19 00:27:02;;;;;;;;;;;;;;;31.58;77.00;98302.19;5020041;28;19928;-42
2023/06/19 00:29:31;;;;;;;;;;;;;;;30.72;79.95;98311.34;5019470;28;19924;-42
2023/06/19 00:31:57;;;;;;;;;;;;;;;30.08;82.42;98314.13;5018803;28;20357;-44
2023/06/19 00:34:24;;;;;;;;;;;;;;;29.67;84.89;98330.66;5017227;28;19939;-43
2023/06/19 00:36:49;;;;;;;;;;;;;;;29.64;84.43;98326.53;5023818;28;20074;-44
2023/06/19 00:39:14;;;;;;;;;;;;;;;29.39;85.60;98323.41;5021456;28;20370;-44
2023/06/19 00:41:39;;;;;;;;;;;;;;;29.38;87.18;98335.03;5020889;28;19932;-44
2023/06/19 00:44:05;;;;;;;;;;;;;;;29.61;85.42;98317.13;5020868;28;19921;-42
2023/06/19 00:46:30;;;;;;;;;;;;;;;29.44;85.86;98323.66;5020724;28;19922;-42
2023/06/19 00:48:56;;;;;;;;;;;;;;;29.17;86.57;98320.72;5016898;28;19925;-42
2023/06/19 00:51:21;;;;;;;;;;;;;;;29.29;85.81;98306.97;5021560;28;19926;-42
2023/06/19 00:53:46;;;;;;;;;;;;;;;28.88;87.72;98320.72;5023254;28;19913;-42
2023/06/19 00:56:12;;;;;;;;;;;;;;;29.86;84.57;98297.41;5021418;28;20011;-44
2023/06/19 00:58:37;;;;;;;;;;;;;;;29.73;84.82;98314.03;5022156;28;19940;-43
2023/06/19 01:01:02;;;;;;;;;;;;;;;29.58;86.11;98309.56;5022970;28;19959;-43
2023/06/19 01:03:27;;;;;;;;;;;;;;;30.73;82.28;98290.94;5018280;28;19996;-44
2023/06/19 01:05:54;;;;;;;;;;;;;;;30.44;80.98;98296.25;5022050;28;19920;-43
2023/06/19 01:08:22;;;;;;;;;;;;;;;31.76;76.84;98272.31;5021647;28;19925;-43
2023/06/19 01:10:49;;;;;;;;;;;;;;;30.43;79.77;98299.94;5022819;28;19984;-43
2023/06/19 01:13:27;;;;;;;;;;;;;;;29.79;83.66;98318.59;5020295;28;20595;-42
2023/06/19 01:15:52;;;;;;;;;;;;;;;30.32;82.46;98303.13;5021997;28;19913;-43
2023/06/19 01:18:17;;;;;;;;;;;;;;;30.76;80.28;98291.34;5018195;28;19925;-43
2023/06/19 01:20:43;;;;;;;;;;;;;;;30.58;81.41;98296.34;5019840;28;19921;-43
2023/06/19 01:23:08;;;;;;;;;;;;;;;29.31;85.21;98319.03;5002346;28;19917;-44
2023/06/19 01:25:33;;;;;;;;;;;;;;;29.53;85.63;98301.31;5021029;28;20015;-44
2023/06/19 01:27:59;;;;;;;;;;;;;;;29.77;83.81;98283.44;5017848;28;19931;-43
2023/06/19 01:30:24;;;;;;;;;;;;;;;29.96;84.40;98293.41;5020530;28;20056;-42
2023/06/19 01:32:52;;;;;;;;;;;;;;;30.35;83.20;98286.78;5019440;28;20024;-42
2023/06/19 01:35:19;;;;;;;;;;;;;;;29.97;81.16;98287.09;5019763;28;19921;-43
2023/06/19 01:37:44;;;;;;;;;;;;;;;30.23;79.58;98283.00;5018643;28;19928;-43
2023/06/19 01:40:10;;;;;;;;;;;;;;;30.57;80.12;98273.47;5020034;28;19920;-43
2023/06/19 01:42:37;;;;;;;;;;;;;;;30.48;79.25;98270.13;5020075;28;19921;-43
2023/06/19 01:45:03;;;;;;;;;;;;;;;31.42;74.94;98242.97;5020781;28;19948;-44
2023/06/19 01:47:28;;;;;;;;;;;;;;;30.69;75.38;98261.25;5020170;28;19929;-43
2023/06/19 01:49:53;;;;;;;;;;;;;;;30.95;74.79;98257.09;5017913;28;19921;-44
2023/06/19 01:52:18;;;;;;;;;;;;;;;31.74;73.82;98242.41;5021861;28;20444;-43
2023/06/19 01:54:43;;;;;;;;;;;;;;;30.55;78.47;98272.84;5019803;28;19932;-44
2023/06/19 01:57:09;;;;;;;;;;;;;;;30.98;79.85;98270.03;5019075;28;19936;-44
2023/06/19 01:59:35;;;;;;;;;;;;;;;31.76;75.59;98241.19;5019847;28;19932;-44
2023/06/19 02:02:00;;;;;;;;;;;;;;;31.45;77.39;98255.06;5021850;28;19917;-44
2023/06/19 02:04:25;;;;;;;;;;;;;;;31.52;77.58;98255.06;5020318;28;19921;-44
2023/06/19 02:06:51;;;;;;;;;;;;;;;31.76;76.01;98248.34;5019555;28;19925;-43
2023/06/19 02:09:16;;;;;;;;;;;;;;;31.57;74.09;98250.78;5020477;28;19965;-44
2023/06/19 02:11:41;;;;;;;;;;;;;;;31.51;74.97;98254.25;5021242;28;19921;-44
2023/06/19 02:14:06;;;;;;;;;;;;;;;31.40;73.20;98252.16;5019798;28;19940;-43
2023/06/19 02:16:32;;;;;;;;;;;;;;;31.38;72.90;98255.00;5020522;28;19921;-43
2023/06/19 02:18:57;;;;;;;;;;;;;;;32.14;68.98;98227.28;5017368;28;19928;-44
2023/06/19 02:21:22;;;;;;;;;;;;;;;32.02;68.26;98231.56;5019228;28;20370;-43
2023/06/19 02:23:47;;;;;;;;;;;;;;;32.27;67.13;98231.75;5019660;28;19964;-44
2023/06/19 02:26:13;;;;;;;;;;;;;;;32.07;66.65;98227.28;5019307;28;19921;-43
2023/06/19 02:28:38;;;;;;;;;;;;;;;30.49;68.81;98255.00;5019456;28;19928;-44
2023/06/19 02:31:03;;;;;;;;;;;;;;;31.66;66.18;98235.44;5021324;28;20404;-44
2023/06/19 02:33:29;;;;;;;;;;;;;;;32.36;63.93;98219.03;5019057;28;19925;-44
2023/06/19 02:35:58;;;;;;;;;;;;;;;32.33;64.35;98225.59;5015486;28;19921;-44
2023/06/19 02:38:24;;;;;;;;;;;;;;;32.22;62.45;98219.06;5019515;28;20973;-44
2023/06/19 02:40:49;;;;;;;;;;;;;;;31.27;66.71;98248.44;5020347;28;19921;-44
2023/06/19 02:43:15;;;;;;;;;;;;;;;31.89;64.46;98235.06;5020148;28;19921;-44
2023/06/19 02:45:40;;;;;;;;;;;;;;;32.02;65.16;98240.41;5020763;28;20011;-45
2023/06/19 02:48:06;;;;;;;;;;;;;;;31.83;64.90;98242.00;5015640;28;20548;-43
2023/06/19 02:50:31;;;;;;;;;;;;;;;31.76;65.74;98248.34;5018597;28;19971;-44
2023/06/19 02:52:56;;;;;;;;;;;;;;;31.65;66.63;98247.91;5017102;28;20399;-44
2023/06/19 02:55:21;;;;;;;;;;;;;;;32.37;64.73;98248.16;5019289;28;19925;-44
2023/06/19 02:57:47;;;;;;;;;;;;;;;31.93;65.39;98246.91;5018991;28;19921;-44
2023/06/19 03:00:13;;;;;;;;;;;;;;;32.42;63.94;98248.34;5019817;28;19917;-44
2023/06/19 03:02:43;;;;;;;;;;;;;;;32.40;64.64;98252.25;5020652;28;19921;-44
2023/06/19 03:05:08;;;;;;;;;;;;;;;31.81;65.21;98261.88;5018845;28;19921;-45
2023/06/19 03:07:33;;;;;;;;;;;;;;;32.33;63.61;98246.91;5017860;28;20366;-43
2023/06/19 03:09:58;;;;;;;;;;;;;;;32.29;63.97;98251.03;5020222;28;19921;-44
2023/06/19 03:12:24;;;;;;;;;;;;;;;30.98;68.03;98292.13;5018770;28;19917;-45
2023/06/19 03:14:49;;;;;;;;;;;;;;;31.06;70.26;98293.78;5019746;28;19921;-44
2023/06/19 03:17:14;;;;;;;;;;;;;;;31.09;67.33;98277.44;5019275;28;19928;-44
2023/06/19 03:19:39;;;;;;;;;;;;;;;32.14;63.91;98266.41;5016853;28;19921;-43
2023/06/19 03:22:04;;;;;;;;;;;;;;;32.48;62.90;98263.50;5015929;28;19918;-44
2023/06/19 03:24:30;;;;;;;;;;;;;;;32.06;64.71;98288.75;5019474;28;19921;-44
2023/06/19 03:26:55;;;;;;;;;;;;;;;32.44;63.97;98280.94;5020027;28;19917;-44
2023/06/19 03:29:20;;;;;;;;;;;;;;;32.50;64.64;98284.59;5018436;28;19932;-44
2023/06/19 03:31:45;;;;;;;;;;;;;;;32.52;63.42;98279.09;5017719;28;20654;-44
2023/06/19 03:34:12;;;;;;;;;;;;;;;32.53;63.86;98283.44;5016043;28;20263;-43
2023/06/19 03:36:38;;;;;;;;;;;;;;;32.30;63.78;98284.66;5017072;28;20386;-44
2023/06/19 03:39:03;;;;;;;;;;;;;;;32.35;62.49;98276.84;5018810;28;19921;-44
2023/06/19 03:41:29;;;;;;;;;;;;;;;32.23;63.64;98278.50;5019441;28;19920;-44
2023/06/19 03:43:54;;;;;;;;;;;;;;;32.20;63.72;98284.22;5018264;28;19927;-44
2023/06/19 03:46:19;;;;;;;;;;;;;;;32.10;65.10;98295.31;5019115;28;19932;-43
2023/06/19 03:48:44;;;;;;;;;;;;;;;30.72;68.96;98327.31;5017761;28;19984;-43
2023/06/19 03:51:09;;;;;;;;;;;;;;;30.77;69.50;98316.94;5019390;28;19921;-43
2023/06/19 03:53:35;;;;;;;;;;;;;;;30.41;73.53;98333.84;5014872;28;20023;-43
2023/06/19 03:56:00;;;;;;;;;;;;;;;30.54;74.09;98330.47;5019443;28;19925;-43
2023/06/19 03:58:25;;;;;;;;;;;;;;;31.77;67.31;98295.25;5019164;28;19975;-43
2023/06/19 04:00:50;;;;;;;;;;;;;;;31.53;69.28;98316.09;5017866;28;19924;-43
2023/06/19 04:03:16;;;;;;;;;;;;;;;30.23;73.37;98341.44;5018891;28;19932;-44
2023/06/19 04:05:42;;;;;;;;;;;;;;;30.49;75.09;98342.69;5018612;28;21607;-43
2023/06/19 04:08:07;;;;;;;;;;;;;;;30.94;72.82;98327.28;5018737;28;20238;-43
2023/06/19 04:10:32;;;;;;;;;;;;;;;31.14;71.46;98328.19;5018389;28;19965;-43
2023/06/19 04:12:58;;;;;;;;;;;;;;;30.60;74.98;98353.59;5018810;28;19925;-44
2023/06/19 04:15:23;;;;;;;;;;;;;;;30.35;75.62;98366.50;5017957;28;19921;-43
2023/06/19 04:17:48;;;;;;;;;;;;;;;30.70;72.89;98352.44;5022047;28;19944;-43
2023/06/19 04:20:14;;;;;;;;;;;;;;;29.99;77.64;98383.31;5020702;28;19958;-43
2023/06/19 04:22:40;;;;;;;;;;;;;;;29.88;78.26;98382.97;5021283;28;19921;-43
2023/06/19 04:25:06;;;;;;;;;;;;;;;29.92;78.50;98379.75;5021724;28;19928;-44
2023/06/19 04:27:31;;;;;;;;;;;;;;;30.00;78.01;98371.66;5022889;28;19925;-43
2023/06/19 04:29:56;;;;;;;;;;;;;;;30.92;72.90;98343.41;5018980;28;20374;-43
2023/06/19 04:32:21;;;;;;;;;;;;;;;31.90;69.48;98337.88;5019817;28;20393;-43
2023/06/19 04:34:47;;;;;;;;;;;;;;;32.18;67.31;98339.56;5019502;28;20528;-44
2023/06/19 04:37:12;;;;;;;;;;;;;;;30.28;76.57;98402.00;5021604;28;20994;-43
2023/06/19 04:39:37;;;;;;;;;;;;;;;30.43;75.71;98392.94;5021220;28;20358;-43
2023/06/19 04:42:02;;;;;;;;;;;;;;;30.70;77.09;98395.81;5020205;28;20529;-44
2023/06/19 04:44:29;;;;;;;;;;;;;;;30.79;75.51;98399.97;5021254;28;20368;-43
2023/06/19 04:47:00;;;;;;;;;;;;;;;31.27;74.17;98370.81;5022014;28;19948;-43
2023/06/19 04:49:26;;;;;;;;;;;;;;;30.95;75.33;98388.25;5021803;28;19920;-43
2023/06/19 04:51:51;;;;;;;;;;;;;;;30.64;75.31;98385.94;5020438;28;21057;-43
2023/06/19 04:54:16;;;;;;;;;;;;;;;29.54;80.09;98419.72;5020933;28;19991;-43
2023/06/19 04:56:41;;;;;;;;;;;;;;;30.81;76.91;98387.31;5022813;28;19924;-44
2023/06/19 04:59:06;;;;;;;;;;;;;;;30.90;76.55;98395.16;5023101;28;19970;-44
2023/06/19 05:01:32;;;;;;;;;;;;;;;31.49;74.78;98393.88;5019650;28;19925;-43
2023/06/19 05:03:59;;;;;;;;;;;;;;;30.57;76.03;98414.31;5017776;28;19960;-43
2023/06/19 05:06:24;;;;;;;;;;;;;;;29.93;79.37;98434.50;5016902;28;19921;-44
2023/06/19 05:08:49;;;;;;;;;;;;;;;30.82;78.51;98414.72;5021184;28;20343;-43
2023/06/19 05:11:14;;;;;;;;;;;;;;;30.93;77.93;98424.00;5021330;28;19921;-44
2023/06/19 05:13:40;;;;;;;;;;;;;;;32.14;73.14;98391.59;5020067;28;19921;-43
2023/06/19 05:16:05;;;;;;;;;;;;;;;30.10;80.08;98455.50;5022695;28;19924;-43
2023/06/19 05:18:30;;;;;;;;;;;;;;;31.28;75.81;98411.53;5021176;28;19975;-43
2023/06/19 05:20:55;;;;;;;;;;;;;;;32.38;73.00;98404.34;5018694;28;19924;-43
2023/06/19 05:23:20;;;;;;;;;;;;;;;31.11;78.53;98440.31;5020671;28;19947;-43
2023/06/19 05:25:46;;;;;;;;;;;;;;;28.08;94.16;98531.22;5021650;28;19921;-44
2023/06/19 05:28:11;;;;;;;;;;;;;;;28.13;95.95;98508.53;5020279;28;19983;-43
2023/06/19 05:30:36;;;;;;;;;;;;;;;27.18;100.00;98534.03;5020284;28;20285;-43
2023/06/19 05:33:01;;;;;;;;;;;;;;;27.38;100.00;98527.44;5020235;28;20384;-43
2023/06/19 05:35:27;;;;;;;;;;;;;;;27.08;100.00;98536.88;5014669;28;19932;-43
2023/06/19 05:37:52;;;;;;;;;;;;;;;27.98;100.00;98509.44;5020502;28;19917;-43
2023/06/19 05:40:17;;;;;;;;;;;;;;;29.08;100.00;98486.22;5020810;28;19927;-43
2023/06/19 05:42:42;;;;;;;;;;;;;;;27.12;100.00;98531.09;5021507;28;19979;-44
2023/06/19 05:45:08;;;;;;;;;;;;;;;28.11;100.00;98520.28;5018845;28;19983;-43
2023/06/19 05:47:33;;;;;;;;;;;;;;;29.08;100.00;98486.22;5021602;28;19948;-44
2023/06/19 05:49:58;;;;;;;;;;;;;;;27.96;100.00;98517.53;5018044;28;20056;-43
2023/06/19 05:52:24;;;;;;;;;;;;;;;29.59;100.00;98475.72;5021012;28;19921;-44
2023/06/19 05:54:49;;;;;;;;;;;;;;;30.34;95.51;98459.69;5020997;28;19921;-43
2023/06/19 05:57:20;;;;;;;;;;;;;;;30.05;96.07;98465.88;5017902;28;19921;-44
2023/06/19 05:59:46;;;;;;;;;;;;;;;30.64;94.26;98460.38;5021406;28;20558;-43
2023/06/19 06:02:11;;;;;;;;;;;;;;;29.16;100.00;98520.59;5019946;28;20012;-43
2023/06/19 06:04:37;;;;;;;;;;;;;;;28.81;100.00;98526.47;5018024;28;20437;-43
2023/06/19 06:07:02;;;;;;;;;;;;;;;30.34;94.95;98471.13;5018222;28;20342;-43
2023/06/19 06:09:27;;;;;;;;;;;;;;;28.34;100.00;98542.31;5018260;28;20900;-44
2023/06/19 06:11:53;;;;;;;;;;;;;;;29.59;100.00;98494.28;5016944;28;19935;-43
2023/06/19 06:14:18;;;;;;;;;;;;;;;29.02;100.00;98539.91;5019713;28;20043;-43
2023/06/19 06:16:43;;;;;;;;;;;;;;;29.14;98.82;98519.13;5019129;28;20018;-44
2023/06/19 06:19:08;;;;;;;;;;;;;;;30.30;96.48;98507.03;5015336;28;19921;-43
2023/06/19 06:21:34;;;;;;;;;;;;;;;30.46;97.20;98521.13;5020924;28;20181;-43
2023/06/19 06:23:59;;;;;;;;;;;;;;;29.47;99.51;98554.13;5017342;28;20007;-44
2023/06/19 06:26:25;;;;;;;;;;;;;;;29.06;100.00;98565.06;5013542;28;19921;-44
2023/06/19 06:28:50;;;;;;;;;;;;;;;28.98;100.00;98562.47;5021143;28;19971;-43
2023/06/19 06:31:15;;;;;;;;;;;;;;;29.49;100.00;98554.78;5020774;28;19964;-43
2023/06/19 06:33:40;;;;;;;;;;;;;;;30.20;96.69;98517.94;5015941;28;19963;-43
2023/06/19 06:36:05;;;;;;;;;;;;;;;28.49;100.00;98560.19;5016206;28;20000;-44
2023/06/19 06:38:31;;;;;;;;;;;;;;;29.92;99.46;98538.22;5013485;28;19928;-43
2023/06/19 06:40:56;;;;;;;;;;;;;;;31.05;91.47;98508.38;5020548;28;19920;-43
2023/06/19 06:43:21;;;;;;;;;;;;;;;30.88;93.30;98536.25;5015594;28;20486;-44
2023/06/19 06:45:47;;;;;;;;;;;;;;;30.87;92.42;98525.84;5016463;28;19928;-44
2023/06/19 06:48:12;;;;;;;;;;;;;;;30.30;97.77;98556.69;5013720;28;20058;-44
2023/06/19 06:50:37;;;;;;;;;;;;;;;30.57;97.11;98534.72;5016584;28;19943;-43
2023/06/19 06:53:02;;;;;;;;;;;;;;;31.25;93.31;98527.16;5020753;28;19971;-43
2023/06/19 06:55:28;;;;;;;;;;;;;;;31.22;94.21;98532.03;5019346;28;20014;-44
2023/06/19 06:57:53;;;;;;;;;;;;;;;31.56;93.03;98517.97;5019398;28;19943;-43
2023/06/19 07:00:18;;;;;;;;;;;;;;;32.40;89.08;98519.56;5020652;28;19917;-44
2023/06/19 07:02:43;;;;;;;;;;;;;;;32.17;89.29;98524.44;5019373;28;19936;-44
2023/06/19 07:05:09;;;;;;;;;;;;;;;30.87;89.81;98539.13;5019195;28;19913;-44
2023/06/19 07:07:34;;;;;;;;;;;;;;;31.47;94.63;98535.09;5020565;28;20024;-43
2023/06/19 07:10:00;;;;;;;;;;;;;;;30.90;92.38;98554.69;5020906;28;19917;-43
2023/06/19 07:12:25;;;;;;;;;;;;;;;30.29;95.80;98563.84;5018724;28;19921;-43
2023/06/19 07:14:53;;;;;;;;;;;;;;;30.68;91.32;98541.38;5019722;28;19933;-44
2023/06/19 07:17:18;;;;;;;;;;;;;;;30.54;90.46;98531.59;5035164;28;20386;-44
2023/06/19 07:19:43;;;;;;;;;;;;;;;28.32;99.01;98612.34;5019875;28;19921;-44
2023/06/19 07:22:08;;;;;;;;;;;;;;;28.83;98.75;98593.41;5019961;28;19921;-44
2023/06/19 07:24:33;;;;;;;;;;;;;;;28.09;100.00;98617.59;5019419;28;19932;-44
2023/06/19 07:26:59;;;;;;;;;;;;;;;29.82;97.32;98578.31;5021353;28;19917;-43
2023/06/19 07:29:25;;;;;;;;;;;;;;;30.05;95.87;98574.75;5020420;28;19926;-43
2023/06/19 07:31:50;;;;;;;;;;;;;;;30.47;92.32;98544.81;5019625;28;19922;-44
2023/06/19 07:34:15;;;;;;;;;;;;;;;31.38;87.16;98530.91;5018277;28;19917;-44
2023/06/19 07:36:42;;;;;;;;;;;;;;;30.02;92.34;98574.13;5019140;28;20685;-44
2023/06/19 07:39:07;;;;;;;;;;;;;;;31.71;88.08;98536.50;5020413;28;19917;-44
2023/06/19 07:41:32;;;;;;;;;;;;;;;31.13;90.03;98554.47;5019573;28;20961;-43
2023/06/19 07:43:57;;;;;;;;;;;;;;;31.36;87.36;98538.28;5018341;28;20374;-44
2023/06/19 07:46:23;;;;;;;;;;;;;;;31.61;87.58;98542.19;5020141;28;20004;-43
2023/06/19 07:48:48;;;;;;;;;;;;;;;29.42;95.26;98611.38;5019800;28;19960;-44
2023/06/19 07:51:13;;;;;;;;;;;;;;;29.74;94.36;98597.00;5022310;28;19924;-44
2023/06/19 07:53:39;;;;;;;;;;;;;;;29.92;88.70;98559.47;5021121;28;19921;-44
2023/06/19 07:56:04;;;;;;;;;;;;;;;31.45;86.46;98543.31;5021677;28;19951;-43
2023/06/19 07:58:30;;;;;;;;;;;;;;;32.37;81.57;98532.50;5024299;28;19917;-43
2023/06/19 08:00:55;;;;;;;;;;;;;;;31.36;83.66;98546.25;5024621;28;19941;-43
2023/06/19 08:03:21;;;;;;;;;;;;;;;31.48;82.51;98552.72;5022181;28;20012;-44
2023/06/19 08:05:46;;;;;;;;;;;;;;;32.34;81.11;98530.22;5021963;28;19932;-43
2023/06/19 08:08:12;;;;;;;;;;;;;;;30.91;89.58;98593.56;5024652;28;19925;-44
2023/06/19 08:10:37;;;;;;;;;;;;;;;31.97;86.82;98551.78;5024839;28;19917;-44
2023/06/19 08:13:02;;;;;;;;;;;;;;;29.64;90.88;98622.94;5023421;28;19914;-44
2023/06/19 08:15:28;;;;;;;;;;;;;;;30.11;92.57;98604.06;5022542;28;19996;-45
2023/06/19 08:17:53;;;;;;;;;;;;;;;30.38;91.16;98597.28;5023647;28;20293;-44
2023/06/19 08:20:19;;;;;;;;;;;;;;;32.09;84.61;98550.22;5024566;28;20317;-44
2023/06/19 08:22:45;;;;;;;;;;;;;;;30.96;85.23;98569.88;5023854;28;19967;-44
2023/06/19 08:25:10;;;;;;;;;;;;;;;30.25;90.64;98605.03;5022506;28;19999;-44
2023/06/19 08:27:35;;;;;;;;;;;;;;;30.85;87.27;98589.81;5022215;28;19929;-44
2023/06/19 08:30:00;;;;;;;;;;;;;;;30.87;91.41;98618.91;5022670;28;19917;-43
2023/06/19 08:32:26;;;;;;;;;;;;;;;31.12;91.82;98593.56;5023734;28;19917;-45
2023/06/19 08:34:51;;;;;;;;;;;;;;;31.19;89.30;98597.09;5022658;28;19925;-44
2023/06/19 08:37:18;;;;;;;;;;;;;;;30.62;92.71;98611.22;5022690;28;20350;-44
2023/06/19 08:39:43;;;;;;;;;;;;;;;30.97;88.99;98590.94;5023482;28;19917;-44
2023/06/19 08:42:09;;;;;;;;;;;;;;;30.97;88.13;98592.78;5023440;28;19924;-43
2023/06/19 08:44:34;;;;;;;;;;;;;;;31.65;87.52;98582.53;5021790;28;19924;-44
2023/06/19 08:47:00;;;;;;;;;;;;;;;32.07;83.28;98564.78;5021879;28;19925;-43
2023/06/19 08:49:26;;;;;;;;;;;;;;;32.63;77.50;98547.75;5022381;28;19924;-44
2023/06/19 08:51:51;;;;;;;;;;;;;;;33.13;77.00;98540.22;5023557;28;19920;-44
2023/06/19 08:54:17;;;;;;;;;;;;;;;32.37;84.21;98589.28;5023233;28;19917;-43
2023/06/19 08:56:43;;;;;;;;;;;;;;;29.94;92.93;98653.03;5023462;28;20687;-44
2023/06/19 08:59:12;;;;;;;;;;;;;;;30.29;92.43;98632.94;5021573;28;19921;-44
2023/06/19 09:01:37;;;;;;;;;;;;;;;29.38;95.87;98650.72;5022491;28;19917;-44
2023/06/19 09:04:12;;;;;;;;;;;;;;;28.93;97.33;98653.13;5020392;28;19917;-44
2023/06/19 09:07:06;;;;;;;;;;;;;;;33.02;84.53;98554.97;5021557;28;19917;-44
2023/06/19 09:09:32;;;;;;;;;;;;;;;29.98;92.15;98633.91;5017188;28;19929;-44
2023/06/19 09:11:59;;;;;;;;;;;;;;;30.79;90.18;98601.19;5023114;28;19975;-44
2023/06/19 09:14:37;;;;;;;;;;;;;;;29.05;98.80;98666.81;5022285;28;19923;-44
2023/06/19 09:17:03;;;;;;;;;;;;;;;30.05;97.09;98646.44;5023305;28;19921;-44
2023/06/19 09:19:29;;;;;;;;;;;;;;;29.35;97.18;98662.50;5020827;28;19921;-44
2023/06/19 09:21:59;;;;;;;;;;;;;;;29.35;96.52;98651.03;5023280;28;19917;-45
2023/06/19 09:24:24;;;;;;;;;;;;;;;29.08;100.00;98671.81;5022337;28;20304;-44
2023/06/19 09:26:50;;;;;;;;;;;;;;;29.63;96.64;98653.97;5021514;28;19943;-44
2023/06/19 09:29:16;;;;;;;;;;;;;;;31.24;88.41;98604.50;5021603;28;19929;-44
2023/06/19 09:31:41;;;;;;;;;;;;;;;32.74;81.50;98587.16;5021575;28;19928;-44
2023/06/19 09:34:07;;;;;;;;;;;;;;;29.75;91.35;98651.72;5021797;28;19917;-45
2023/06/19 09:36:34;;;;;;;;;;;;;;;28.88;99.21;98670.59;5021102;28;20005;-44
2023/06/19 09:38:59;;;;;;;;;;;;;;;30.43;96.00;98632.06;5021392;28;19917;-45
2023/06/19 09:41:24;;;;;;;;;;;;;;;30.59;97.24;98627.56;5022966;28;19921;-44
2023/06/19 09:43:50;;;;;;;;;;;;;;;30.62;100.00;98659.06;5020340;28;20008;-44
2023/06/19 09:46:15;;;;;;;;;;;;;;;30.18;97.20;98633.34;5020642;28;19917;-45
2023/06/19 09:48:44;;;;;;;;;;;;;;;29.90;96.00;98633.16;5020773;28;19921;-45
2023/06/19 09:51:12;;;;;;;;;;;;;;;30.28;98.23;98639.22;5021785;28;19917;-45
2023/06/19 09:53:37;;;;;;;;;;;;;;;34.13;85.40;98550.75;5020708;28;20428;-45
2023/06/19 09:56:03;;;;;;;;;;;;;;;30.92;93.02;98641.22;5022853;28;19917;-44
2023/06/19 09:58:28;;;;;;;;;;;;;;;33.96;81.82;98563.69;5022031;28;20381;-44
2023/06/19 10:00:54;;;;;;;;;;;;;;;33.49;80.87;98587.81;5017289;28;19932;-45
2023/06/19 10:03:20;;;;;;;;;;;;;;;32.01;84.76;98616.16;5020285;28;19920;-44
2023/06/19 10:05:46;;;;;;;;;;;;;;;31.55;87.92;98633.44;5022041;28;19982;-44
2023/06/19 10:08:11;;;;;;;;;;;;;;;31.91;84.98;98621.81;5022351;28;19964;-45
2023/06/19 10:10:36;;;;;;;;;;;;;;;31.56;88.45;98635.09;5019804;28;19917;-44
2023/06/19 10:13:12;;;;;;;;;;;;;;;32.87;88.13;98605.84;5019493;28;19955;-44
2023/06/19 10:15:40;;;;;;;;;;;;;;;32.19;87.72;98619.13;5021994;28;19971;-45
2023/06/19 10:18:05;;;;;;;;;;;;;;;33.88;81.80;98578.13;5021765;28;19917;-45
2023/06/19 10:20:37;;;;;;;;;;;;;;;34.22;75.81;98564.69;5020035;28;19924;-46
2023/06/19 10:23:06;;;;;;;;;;;;;;;33.81;72.84;98584.53;5020157;28;19939;-44
2023/06/19 10:25:32;;;;;;;;;;;;;;;31.60;88.17;98657.63;5021337;28;19971;-44
2023/06/19 10:27:58;;;;;;;;;;;;;;;35.01;77.74;98573.28;5021509;28;19928;-44
2023/06/19 10:30:23;;;;;;;;;;;;;;;35.16;72.86;98579.97;5021568;28;19978;-44
2023/06/19 10:32:49;;;;;;;;;;;;;;;34.74;74.56;98586.84;5021170;28;19917;-45
2023/06/19 10:35:15;;;;;;;;;;;;;;;35.66;75.47;98600.56;5017907;28;20569;-45
2023/06/19 10:37:40;;;;;;;;;;;;;;;34.20;78.84;98615.66;5020831;28;19917;-44
2023/06/19 10:40:09;;;;;;;;;;;;;;;36.81;68.76;98551.53;5021289;28;19921;-45
2023/06/19 10:42:34;;;;;;;;;;;;;;;33.12;79.95;98650.66;5021685;28;19921;-47
2023/06/19 10:45:02;;;;;;;;;;;;;;;33.67;75.29;98600.56;5019938;28;19920;-45
2023/06/19 10:47:28;;;;;;;;;;;;;;;34.36;77.64;98606.34;5020343;28;19963;-45
2023/06/19 10:49:53;;;;;;;;;;;;;;;33.43;78.84;98609.19;5020830;28;19921;-45
2023/06/19 10:52:18;;;;;;;;;;;;;;;34.53;73.32;98583.44;5021230;28;19926;-46
2023/06/19 10:54:43;;;;;;;;;;;;;;;33.89;75.07;98602.97;5019095;28;19917;-46
2023/06/19 10:57:08;;;;;;;;;;;;;;;35.38;73.63;98593.81;5021335;28;19928;-44
2023/06/19 10:59:34;;;;;;;;;;;;;;;32.64;83.34;98658.69;5020384;28;19913;-45
2023/06/19 11:01:59;;;;;;;;;;;;;;;30.96;90.46;98681.59;5019841;28;19917;-45
2023/06/19 11:04:25;;;;;;;;;;;;;;;32.12;88.32;98639.59;5015861;28;19921;-44
2023/06/19 11:06:50;;;;;;;;;;;;;;;34.41;80.38;98585.13;5017434;28;19928;-44
2023/06/19 11:09:15;;;;;;;;;;;;;;;37.00;70.77;98549.56;5018517;28;19921;-45
2023/06/19 11:11:45;;;;;;;;;;;;;;;34.18;81.13;98632.94;5019283;28;20407;-45
2023/06/19 11:14:12;;;;;;;;;;;;;;;37.23;69.46;98569.47;5020127;28;19917;-48
2023/06/19 11:16:38;;;;;;;;;;;;;;;36.03;69.03;98588.00;5018646;28;20285;-46
2023/06/19 11:19:03;;;;;;;;;;;;;;;33.57;73.22;98626.03;5019671;28;19917;-45
2023/06/19 11:21:29;;;;;;;;;;;;;;;33.94;75.91;98620.03;5019104;28;19917;-46
2023/06/19 11:23:54;;;;;;;;;;;;;;;33.37;83.49;98642.03;5020377;28;19917;-45
2023/06/19 11:26:20;;;;;;;;;;;;;;;33.50;82.42;98623.34;5017377;28;19924;-45
2023/06/19 11:28:47;;;;;;;;;;;;;;;33.48;81.05;98623.56;5017181;28;19931;-45
2023/06/19 11:31:13;;;;;;;;;;;;;;;33.11;84.30;98646.34;4998882;28;19947;-45
2023/06/19 11:33:38;;;;;;;;;;;;;;;35.39;76.42;98592.75;5015700;28;20433;-45
2023/06/19 11:36:03;;;;;;;;;;;;;;;35.07;74.35;98575.91;5016429;28;19936;-46
2023/06/19 11:38:29;;;;;;;;;;;;;;;38.17;70.05;98547.06;5018127;28;20327;-45
2023/06/19 11:40:54;;;;;;;;;;;;;;;37.38;63.27;98555.56;5016936;28;19975;-45
2023/06/19 11:43:26;;;;;;;;;;;;;;;36.99;64.38;98564.03;5012921;28;19920;-47
2023/06/19 11:45:52;;;;;;;;;;;;;;;37.26;66.95;98555.56;5017353;28;19917;-45
2023/06/19 11:48:26;;;;;;;;;;;;;;;35.56;68.58;98586.84;4998632;28;19932;-47
2023/06/19 11:50:52;;;;;;;;;;;;;;;32.73;86.08;98662.84;5019496;28;19921;-46
2023/06/19 11:53:18;;;;;;;;;;;;;;;32.48;86.15;98651.84;5015218;28;20763;-46
2023/06/19 11:55:43;;;;;;;;;;;;;;;32.17;85.73;98647.00;5018283;28;19921;-46
2023/06/19 11:58:09;;;;;;;;;;;;;;;32.18;88.13;98649.44;5020064;28;19960;-45
2023/06/19 12:00:35;;;;;;;;;;;;;;;35.59;82.71;98581.84;5019334;28;19921;-45
2023/06/19 12:03:01;;;;;;;;;;;;;;;35.40;81.92;98599.75;5019266;28;19917;-46
2023/06/19 12:05:26;;;;;;;;;;;;;;;37.08;72.10;98561.06;5019028;28;20300;-45
2023/06/19 12:07:51;;;;;;;;;;;;;;;38.95;61.42;98521.31;5013604;28;19929;-45
2023/06/19 12:10:16;;;;;;;;;;;;;;;34.33;75.63;98614.81;5018725;28;19924;-45
2023/06/19 12:12:41;;;;;;;;;;;;;;;34.31;75.72;98593.63;5019265;28;19925;-45
2023/06/19 12:15:07;;;;;;;;;;;;;;;34.66;68.48;98565.69;5018134;28;20417;-46
2023/06/19 12:17:32;;;;;;;;;;;;;;;36.19;71.69;98581.25;5018624;28;20505;-45
2023/06/19 12:19:58;;;;;;;;;;;;;;;33.31;79.23;98622.34;5018511;28;19921;-46
2023/06/19 12:22:23;;;;;;;;;;;;;;;34.26;71.45;98561.38;5019446;28;19925;-46
2023/06/19 12:24:48;;;;;;;;;;;;;;;34.71;73.73;98587.25;5018018;28;20000;-46
2023/06/19 12:27:13;;;;;;;;;;;;;;;34.41;77.15;98593.16;5016702;28;20019;-46
2023/06/19 12:29:39;;;;;;;;;;;;;;;35.06;74.60;98566.25;5017934;28;20374;-45
2023/06/19 12:32:04;;;;;;;;;;;;;;;33.84;76.32;98586.75;5018504;28;20361;-45
2023/06/19 12:34:29;;;;;;;;;;;;;;;34.68;77.16;98593.06;5016355;28;20367;-47
2023/06/19 12:36:56;;;;;;;;;;;;;;;32.62;80.81;98615.44;5019551;28;19944;-45